Time;durP1;ratioP1;P1;durP2;ratioP2;P2;SDS_P1;SDS_P2;PMS_P1;PMS_P2;Temp;Humidity;BMP_temperature;BMP_pressure;BME280_temperature;BME280_humidity;BME280_pressure;Samples;Min_cycle;Max_cycle;Signal;HPM_P1;HPM_P2
2022/04/08 00:01:42;;;;;;;9.23;6.85;;;9.20;66.00;;;;;;5133608;27;20284;-58
2022/04/08 00:04:10;;;;;;;7.07;6.47;;;9.20;65.50;;;;;;5133418;27;20206;-59
2022/04/08 00:06:37;;;;;;;7.05;6.45;;;9.30;65.30;;;;;;5133541;27;20293;-58
2022/04/08 00:09:04;;;;;;;6.53;6.20;;;9.10;66.70;;;;;;5133340;27;20325;-57
2022/04/08 00:11:31;;;;;;;6.80;6.40;;;9.20;65.40;;;;;;5133632;27;20203;-58
2022/04/08 00:13:57;;;;;;;6.95;6.25;;;9.30;65.60;;;;;;5132270;27;20285;-58
2022/04/08 00:16:24;;;;;;;6.57;6.18;;;9.40;65.40;;;;;;5133530;27;20205;-58
2022/04/08 00:18:51;;;;;;;6.88;6.32;;;9.50;65.10;;;;;;5133385;27;20206;-57
2022/04/08 00:21:20;;;;;;;6.97;6.30;;;9.50;64.90;;;;;;5133564;27;20585;-58
2022/04/08 00:23:46;;;;;;;6.95;6.55;;;9.50;64.30;;;;;;5133219;27;20209;-57
2022/04/08 00:26:13;;;;;;;6.32;5.90;;;9.50;64.20;;;;;;5133457;27;20205;-57
2022/04/08 00:28:40;;;;;;;6.47;5.90;;;9.40;64.50;;;;;;5131888;27;20779;-59
2022/04/08 00:31:07;;;;;;;6.50;5.93;;;9.40;64.20;;;;;;5134879;27;20266;-58
2022/04/08 00:33:34;;;;;;;6.72;5.97;;;9.40;64.60;;;;;;5137005;27;20238;-58
2022/04/08 00:36:01;;;;;;;6.13;5.72;;;9.30;64.00;;;;;;5137087;27;20199;-56
2022/04/08 00:38:30;;;;;;;8.18;5.80;;;9.30;64.20;;;;;;5136842;27;20290;-58
2022/04/08 00:40:57;;;;;;;6.30;5.97;;;9.00;64.60;;;;;;5136986;27;20194;-58
2022/04/08 00:43:33;;;;;;;7.10;6.20;;;9.10;64.60;;;;;;5135585;27;20285;-59
2022/04/08 00:46:01;;;;;;;6.40;5.90;;;9.10;64.90;;;;;;5136795;27;20206;-58
2022/04/08 00:48:28;;;;;;;6.32;5.93;;;9.20;65.20;;;;;;5136727;27;20604;-58
2022/04/08 00:50:55;;;;;;;6.50;6.10;;;9.20;65.60;;;;;;5136698;27;20199;-58
2022/04/08 00:53:22;;;;;;;6.78;6.25;;;9.30;65.30;;;;;;5136624;27;20209;-58
2022/04/08 00:55:51;;;;;;;6.65;6.25;;;9.30;65.10;;;;;;5136639;27;20293;-58
2022/04/08 00:58:18;;;;;;;5.85;5.65;;;9.40;65.00;;;;;;5135280;27;20206;-57
2022/04/08 01:00:45;;;;;;;7.95;6.00;;;9.20;64.70;;;;;;5136605;27;20194;-58
2022/04/08 01:03:12;;;;;;;6.85;6.38;;;9.10;65.60;;;;;;5136436;27;20203;-58
2022/04/08 01:05:39;;;;;;;6.20;5.80;;;9.10;66.30;;;;;;5136472;27;20285;-58
2022/04/08 01:08:10;;;;;;;6.93;6.38;;;9.00;65.80;;;;;;5136357;27;20230;-58
2022/04/08 01:10:38;;;;;;;7.18;6.13;;;8.90;65.40;;;;;;5136329;27;20538;-58
2022/04/08 01:13:07;;;;;;;6.57;6.05;;;9.00;65.30;;;;;;5134851;27;20237;-57
2022/04/08 01:15:34;;;;;;;9.18;6.35;;;9.00;64.80;;;;;;5136386;27;20290;-56
2022/04/08 01:18:01;;;;;;;6.82;6.28;;;8.90;65.60;;;;;;5136350;27;20209;-59
2022/04/08 01:20:27;;;;;;;6.70;5.90;;;8.90;65.20;;;;;;5136119;27;20212;-59
2022/04/08 01:22:54;;;;;;;6.30;5.90;;;9.00;64.90;;;;;;5136235;27;20199;-58
2022/04/08 01:25:23;;;;;;;7.65;6.00;;;9.00;64.80;;;;;;5136076;27;20199;-59
2022/04/08 01:27:50;;;;;;;6.20;5.80;;;8.90;64.60;;;;;;5134589;27;20775;-58
2022/04/08 01:30:16;;;;;;;6.43;5.97;;;8.90;64.90;;;;;;5135917;27;20281;-58
2022/04/08 01:32:43;;;;;;;6.15;5.75;;;8.80;64.90;;;;;;5135998;27;20206;-58
2022/04/08 01:35:10;;;;;;;6.70;6.07;;;8.90;65.00;;;;;;5135854;27;20205;-58
2022/04/08 01:37:37;;;;;;;6.10;5.80;;;9.00;64.80;;;;;;5136002;27;20203;-58
2022/04/08 01:40:05;;;;;;;7.53;5.90;;;9.00;64.50;;;;;;5135520;27;20293;-58
2022/04/08 01:42:33;;;;;;;6.30;5.90;;;8.90;64.50;;;;;;5134358;27;20281;-57
2022/04/08 01:45:00;;;;;;;8.02;6.15;;;9.00;64.60;;;;;;5135730;27;20198;-57
2022/04/08 01:47:27;;;;;;;6.40;6.00;;;9.10;64.70;;;;;;5135562;27;20289;-58
2022/04/08 01:49:54;;;;;;;6.40;6.07;;;9.10;64.60;;;;;;5135491;27;20234;-58
2022/04/08 01:52:21;;;;;;;6.90;6.40;;;9.10;64.50;;;;;;5135644;27;20657;-55
2022/04/08 01:54:48;;;;;;;6.05;5.60;;;8.90;65.10;;;;;;5135361;27;20293;-57
2022/04/08 01:57:17;;;;;;;6.32;5.80;;;8.90;65.00;;;;;;5134097;27;20202;-58
2022/04/08 01:59:47;;;;;;;7.82;7.15;;;8.80;65.10;;;;;;5135356;27;20199;-56
2022/04/08 02:02:14;;;;;;;6.53;5.95;;;8.70;65.60;;;;;;5135274;27;20598;-58
2022/04/08 02:04:41;;;;;;;6.95;6.32;;;8.70;65.90;;;;;;5135463;27;20293;-58
2022/04/08 02:07:07;;;;;;;6.60;6.00;;;8.80;65.60;;;;;;5135162;27;20237;-59
2022/04/08 02:09:34;;;;;;;8.20;6.25;;;8.90;65.10;;;;;;5135029;27;20231;-56
2022/04/08 02:12:01;;;;;;;7.03;6.43;;;8.80;64.30;;;;;;5133755;27;20202;-57
2022/04/08 02:14:28;;;;;;;6.75;6.28;;;8.70;65.00;;;;;;5135057;27;20195;-58
2022/04/08 02:16:56;;;;;;;6.22;5.80;;;8.70;64.60;;;;;;5135092;27;20623;-58
2022/04/08 02:19:23;;;;;;;6.80;6.40;;;8.50;64.90;;;;;;5134939;27;20238;-57
2022/04/08 02:21:51;;;;;;;6.45;6.15;;;8.60;65.00;;;;;;5134794;27;20198;-58
2022/04/08 02:24:18;;;;;;;6.88;6.45;;;8.60;65.30;;;;;;5134894;27;20211;-58
2022/04/08 02:26:44;;;;;;;6.20;5.80;;;8.60;65.30;;;;;;5134249;27;20294;-58
2022/04/08 02:29:11;;;;;;;6.40;6.00;;;8.60;64.90;;;;;;5134237;27;20667;-57
2022/04/08 02:31:38;;;;;;;6.20;5.80;;;8.60;64.90;;;;;;5134804;27;20226;-55
2022/04/08 02:34:07;;;;;;;6.30;6.00;;;8.80;64.90;;;;;;5134786;27;20217;-58
2022/04/08 02:36:34;;;;;;;7.10;6.60;;;8.80;65.00;;;;;;5134580;27;20717;-57
2022/04/08 02:39:00;;;;;;;6.50;5.90;;;8.80;64.50;;;;;;5134503;27;20677;-58
2022/04/08 02:41:27;;;;;;;7.75;6.40;;;8.80;64.90;;;;;;5134648;27;20201;-58
2022/04/08 02:43:54;;;;;;;7.15;6.65;;;8.70;64.90;;;;;;5133252;27;20220;-58
2022/04/08 02:46:21;;;;;;;6.90;6.40;;;8.70;65.30;;;;;;5134526;27;20198;-58
2022/04/08 02:48:48;;;;;;;6.38;6.05;;;8.80;65.30;;;;;;5134370;27;20234;-58
2022/04/08 02:51:16;;;;;;;7.00;6.50;;;9.00;65.00;;;;;;5134437;27;20205;-58
2022/04/08 02:53:43;;;;;;;7.35;6.70;;;9.00;64.30;;;;;;5133903;27;20286;-57
2022/04/08 02:56:10;;;;;;;6.75;6.28;;;8.80;64.60;;;;;;5134397;27;20554;-58
2022/04/08 02:58:37;;;;;;;6.45;6.07;;;8.70;65.40;;;;;;5133132;27;20209;-57
2022/04/08 03:01:04;;;;;;;6.45;5.95;;;8.70;65.30;;;;;;5134770;27;20251;-57
2022/04/08 03:03:32;;;;;;;7.75;6.82;;;8.70;65.60;;;;;;5134161;27;20210;-57
2022/04/08 03:05:59;;;;;;;6.63;6.13;;;8.60;65.60;;;;;;5134339;27;20202;-57
2022/04/08 03:08:29;;;;;;;7.10;6.70;;;8.50;66.10;;;;;;5134058;27;20738;-57
2022/04/08 03:10:56;;;;;;;5.80;5.35;;;8.40;66.40;;;;;;5134046;27;20649;-57
2022/04/08 03:13:23;;;;;;;6.30;5.80;;;8.30;66.40;;;;;;5132849;27;20209;-57
2022/04/08 03:15:50;;;;;;;7.05;6.47;;;8.30;65.70;;;;;;5134319;27;20390;-57
2022/04/08 03:18:17;;;;;;;7.30;6.90;;;8.30;65.00;;;;;;5133960;27;20212;-57
2022/04/08 03:20:44;;;;;;;6.30;5.65;;;8.30;66.10;;;;;;5134006;27;20265;-57
2022/04/08 03:23:11;;;;;;;7.78;7.03;;;8.30;65.90;;;;;;5134018;27;20230;-57
2022/04/08 03:25:39;;;;;;;6.45;5.00;;;8.40;65.70;;;;;;5133688;27;20421;-57
2022/04/08 03:28:06;;;;;;;6.25;5.85;;;8.30;65.10;;;;;;5132397;27;20226;-56
2022/04/08 03:30:33;;;;;;;6.88;6.57;;;8.10;65.60;;;;;;5133925;27;20234;-58
2022/04/08 03:33:00;;;;;;;7.20;6.70;;;8.00;64.90;;;;;;5134041;27;20202;-57
2022/04/08 03:35:27;;;;;;;6.63;6.30;;;8.00;64.70;;;;;;5133804;27;20554;-57
2022/04/08 03:37:54;;;;;;;7.70;7.25;;;8.00;65.00;;;;;;5133824;27;20199;-57
2022/04/08 03:40:21;;;;;;;7.47;6.10;;;8.00;66.10;;;;;;5133543;27;20297;-57
2022/04/08 03:42:49;;;;;;;7.13;6.40;;;8.00;64.90;;;;;;5132430;27;20287;-57
2022/04/08 03:45:16;;;;;;;7.57;6.97;;;8.00;65.00;;;;;;5133607;27;20671;-57
2022/04/08 03:47:43;;;;;;;9.57;7.22;;;8.20;64.50;;;;;;5133644;27;20649;-57
2022/04/08 03:50:10;;;;;;;7.38;6.10;;;8.30;64.10;;;;;;5133515;27;20237;-57
2022/04/08 03:52:37;;;;;;;6.68;6.28;;;8.30;63.90;;;;;;5133799;27;20209;-57
2022/04/08 03:55:05;;;;;;;6.57;6.07;;;8.20;63.90;;;;;;5133763;27;20233;-57
2022/04/08 03:57:32;;;;;;;6.50;6.10;;;8.10;64.20;;;;;;5132358;27;20199;-57
2022/04/08 04:00:00;;;;;;;7.15;6.65;;;8.10;64.30;;;;;;5133483;27;20617;-57
2022/04/08 04:02:27;;;;;;;6.80;6.40;;;8.10;63.90;;;;;;5133526;27;20248;-57
2022/04/08 04:04:59;;;;;;;6.30;5.85;;;8.00;64.00;;;;;;5133733;27;20238;-57
2022/04/08 04:07:26;;;;;;;5.28;4.65;;;7.90;64.30;;;;;;5137581;27;20198;-56
2022/04/08 04:09:53;;;;;;;7.63;7.03;;;7.80;64.40;;;;;;5137416;27;20317;-57
2022/04/08 04:12:19;;;;;;;7.40;6.80;;;7.70;64.50;;;;;;5136123;27;20217;-57
2022/04/08 04:14:46;;;;;;;6.85;6.40;;;7.80;64.30;;;;;;5137445;27;20293;-58
2022/04/08 04:17:14;;;;;;;6.95;6.45;;;7.90;64.40;;;;;;5137516;27;20246;-57
2022/04/08 04:19:41;;;;;;;7.20;6.80;;;8.10;64.00;;;;;;5137357;27;20610;-57
2022/04/08 04:22:08;;;;;;;6.32;6.03;;;8.20;63.70;;;;;;5137338;27;20249;-57
2022/04/08 04:24:35;;;;;;;8.13;7.57;;;8.10;63.40;;;;;;5137109;27;20205;-57
2022/04/08 04:27:02;;;;;;;5.20;5.00;;;8.10;63.50;;;;;;5135745;27;20847;-57
2022/04/08 04:29:29;;;;;;;5.10;4.70;;;8.10;64.30;;;;;;5137176;27;20241;-58
2022/04/08 04:31:56;;;;;;;7.20;6.78;;;8.00;64.30;;;;;;5137309;27;20262;-58
2022/04/08 04:34:25;;;;;;;7.30;7.00;;;8.20;64.10;;;;;;5137070;27;20210;-56
2022/04/08 04:36:51;;;;;;;7.72;6.97;;;8.30;63.20;;;;;;5136975;27;20700;-58
2022/04/08 04:39:19;;;;;;;6.10;5.70;;;8.10;63.90;;;;;;5137032;27;20297;-57
2022/04/08 04:41:46;;;;;;;7.03;6.60;;;8.20;64.30;;;;;;5136118;27;20293;-57
2022/04/08 04:44:12;;;;;;;7.43;6.93;;;8.20;63.50;;;;;;5136495;27;20285;-57
2022/04/08 04:46:39;;;;;;;7.78;7.28;;;8.10;64.00;;;;;;5136892;27;20290;-57
2022/04/08 04:49:06;;;;;;;6.00;5.50;;;8.00;64.60;;;;;;5136661;27;20597;-57
2022/04/08 04:51:34;;;;;;;7.43;6.93;;;7.80;64.90;;;;;;5136862;27;20230;-57
2022/04/08 04:54:01;;;;;;;7.00;6.60;;;7.80;65.10;;;;;;5136648;27;20241;-57
2022/04/08 04:56:28;;;;;;;6.32;6.03;;;7.80;65.10;;;;;;5136671;27;20218;-57
2022/04/08 04:58:55;;;;;;;6.88;6.47;;;7.80;65.20;;;;;;5135274;27;20202;-57
2022/04/08 05:01:22;;;;;;;7.07;6.55;;;7.80;65.60;;;;;;5136620;27;20203;-57
2022/04/08 05:03:48;;;;;;;7.38;6.88;;;7.90;65.10;;;;;;5136614;27;20592;-57
2022/04/08 05:06:15;;;;;;;8.27;7.75;;;7.90;65.00;;;;;;5136375;27;20289;-57
2022/04/08 05:08:43;;;;;;;4.70;4.40;;;8.10;64.80;;;;;;5136254;27;20317;-57
2022/04/08 05:11:10;;;;;;;6.13;5.63;;;8.00;64.80;;;;;;5136314;27;20205;-57
2022/04/08 05:13:37;;;;;;;7.30;6.80;;;8.00;64.80;;;;;;5134962;27;20205;-57
2022/04/08 05:16:05;;;;;;;6.85;6.20;;;8.10;64.80;;;;;;5135922;27;20198;-57
2022/04/08 05:18:31;;;;;;;6.50;6.20;;;8.30;64.50;;;;;;5136104;27;20253;-58
2022/04/08 05:20:58;;;;;;;6.63;6.32;;;8.30;64.20;;;;;;5136198;27;20238;-58
2022/04/08 05:23:29;;;;;;;6.30;5.80;;;8.20;64.10;;;;;;5136182;27;20201;-57
2022/04/08 05:25:58;;;;;;;7.50;6.70;;;8.10;64.40;;;;;;5136138;27;20225;-57
2022/04/08 05:28:25;;;;;;;5.47;5.13;;;8.10;64.70;;;;;;5134657;27;20271;-58
2022/04/08 05:30:52;;;;;;;7.65;5.78;;;8.20;64.60;;;;;;5136031;27;20234;-57
2022/04/08 05:33:19;;;;;;;7.70;7.30;;;8.20;64.80;;;;;;5135966;27;20207;-58
2022/04/08 05:35:46;;;;;;;7.45;6.20;;;8.30;64.70;;;;;;5135932;27;20222;-58
2022/04/08 05:38:13;;;;;;;5.88;5.40;;;8.50;64.10;;;;;;5135750;27;20194;-57
2022/04/08 05:40:41;;;;;;;7.32;6.93;;;8.50;63.90;;;;;;5135800;27;20440;-57
2022/04/08 05:43:10;;;;;;;7.70;7.00;;;8.50;64.00;;;;;;5134564;27;20194;-57
2022/04/08 05:45:37;;;;;;;10.35;7.00;;;8.60;64.60;;;;;;5135722;27;20198;-57
2022/04/08 05:48:05;;;;;;;6.63;6.30;;;8.70;64.20;;;;;;5135491;27;20202;-58
2022/04/08 05:50:32;;;;;;;6.15;5.75;;;8.70;64.50;;;;;;5135434;27;20235;-58
2022/04/08 05:52:59;;;;;;;7.07;6.63;;;8.70;63.90;;;;;;5135632;27;20202;-57
2022/04/08 05:55:26;;;;;;;6.15;5.63;;;8.70;64.00;;;;;;5135646;27;20202;-58
2022/04/08 05:57:55;;;;;;;8.35;7.82;;;8.80;63.60;;;;;;5134150;27;20292;-58
2022/04/08 06:00:24;;;;;;;7.40;5.03;;;8.70;64.20;;;;;;5135427;27;20202;-58
2022/04/08 06:02:53;;;;;;;7.60;7.10;;;8.60;64.20;;;;;;5135322;27;20577;-58
2022/04/08 06:05:20;;;;;;;8.30;7.57;;;8.50;64.80;;;;;;5135290;27;20293;-58
2022/04/08 06:07:48;;;;;;;5.80;5.30;;;8.60;65.30;;;;;;5135318;27;20203;-58
2022/04/08 06:10:18;;;;;;;6.72;6.32;;;8.80;65.60;;;;;;5135017;27;20231;-58
2022/04/08 06:12:46;;;;;;;7.90;7.40;;;8.70;66.40;;;;;;5133915;27;20199;-57
2022/04/08 06:15:13;;;;;;;8.15;7.63;;;8.20;67.70;;;;;;5135089;27;20291;-57
2022/04/08 06:17:41;;;;;;;8.38;7.72;;;7.90;69.20;;;;;;5135104;27;20222;-57
2022/04/08 06:20:10;;;;;;;11.13;10.63;;;7.70;70.20;;;;;;5134921;27;20203;-57
2022/04/08 06:22:39;;;;;;;11.65;11.00;;;7.40;72.20;;;;;;5134996;27;20242;-58
2022/04/08 06:25:07;;;;;;;9.75;9.25;;;7.30;73.80;;;;;;5134689;27;20209;-57
2022/04/08 06:27:34;;;;;;;12.48;11.80;;;7.00;74.10;;;;;;5133153;27;20587;-57
2022/04/08 06:30:01;;;;;;;10.85;10.25;;;6.90;75.30;;;;;;5133986;27;20240;-57
2022/04/08 06:32:28;;;;;;;9.68;8.68;;;6.70;75.40;;;;;;5134713;27;20202;-58
2022/04/08 06:34:56;;;;;;;9.95;9.55;;;6.70;76.40;;;;;;5134627;27;20195;-57
2022/04/08 06:37:28;;;;;;;10.27;9.68;;;6.70;78.50;;;;;;5134762;27;20209;-57
2022/04/08 06:39:55;;;;;;;10.60;9.80;;;6.80;77.80;;;;;;5134583;27;20210;-58
2022/04/08 06:42:22;;;;;;;11.90;9.60;;;6.90;78.90;;;;;;5133256;27;20206;-57
2022/04/08 06:44:49;;;;;;;8.13;7.63;;;6.90;79.40;;;;;;5134359;27;20566;-58
2022/04/08 06:47:16;;;;;;;7.38;6.97;;;6.90;79.50;;;;;;5134481;27;20673;-58
2022/04/08 06:49:44;;;;;;;5.57;5.18;;;6.90;80.80;;;;;;5134452;27;20234;-57
2022/04/08 06:52:13;;;;;;;7.55;7.15;;;6.80;81.50;;;;;;5134517;27;20539;-56
2022/04/08 06:54:40;;;;;;;9.23;7.25;;;6.60;80.50;;;;;;5134193;27;20293;-56
2022/04/08 06:57:07;;;;;;;7.10;6.70;;;6.50;81.50;;;;;;5133099;27;20209;-58
2022/04/08 06:59:34;;;;;;;7.22;6.82;;;6.30;82.20;;;;;;5134216;27;20198;-57
2022/04/08 07:02:01;;;;;;;7.55;6.90;;;6.30;83.00;;;;;;5134353;27;20207;-57
2022/04/08 07:04:28;;;;;;;7.43;7.10;;;6.30;83.20;;;;;;5134364;27;20233;-56
2022/04/08 07:06:56;;;;;;;8.55;8.10;;;6.30;83.80;;;;;;5134113;27;20255;-57
2022/04/08 07:09:24;;;;;;;7.93;7.38;;;6.20;83.70;;;;;;5134193;27;20231;-57
2022/04/08 07:11:57;;;;;;;7.95;7.55;;;6.10;84.10;;;;;;5132776;27;20202;-58
2022/04/08 07:14:23;;;;;;;8.40;7.90;;;6.20;85.50;;;;;;5134039;27;20251;-57
2022/04/08 07:16:50;;;;;;;9.27;7.95;;;6.30;85.20;;;;;;5134044;27;20289;-57
2022/04/08 07:19:17;;;;;;;7.88;7.50;;;6.30;85.00;;;;;;5134062;27;20206;-58
2022/04/08 07:21:44;;;;;;;8.10;7.50;;;6.50;86.10;;;;;;5134109;27;20233;-57
2022/04/08 07:24:11;;;;;;;9.35;8.65;;;6.60;86.10;;;;;;5134007;27;20198;-58
2022/04/08 07:26:39;;;;;;;9.63;9.13;;;6.60;86.20;;;;;;5133600;27;20862;-58
2022/04/08 07:29:06;;;;;;;11.95;11.25;;;6.50;86.10;;;;;;5132515;27;20217;-58
2022/04/08 07:31:34;;;;;;;13.20;12.50;;;6.40;85.10;;;;;;5133791;27;20234;-58
2022/04/08 07:34:01;;;;;;;14.15;13.00;;;6.20;85.20;;;;;;5133924;27;20230;-58
2022/04/08 07:36:28;;;;;;;15.35;14.52;;;6.20;87.10;;;;;;5133956;27;20238;-58
2022/04/08 07:38:55;;;;;;;15.10;14.05;;;6.00;84.40;;;;;;5133731;27;20298;-58
2022/04/08 07:41:21;;;;;;;14.10;13.40;;;6.00;86.60;;;;;;5137849;27;20213;-58
2022/04/08 07:43:50;;;;;;;13.82;13.10;;;6.00;87.80;;;;;;5136956;27;20198;-59
2022/04/08 07:46:17;;;;;;;12.98;12.15;;;6.00;86.80;;;;;;5138029;27;20194;-58
2022/04/08 07:48:44;;;;;;;15.20;13.23;;;6.00;87.70;;;;;;5137893;27;20293;-58
2022/04/08 07:51:11;;;;;;;13.43;12.60;;;6.10;87.10;;;;;;5137778;27;20233;-59
2022/04/08 07:53:37;;;;;;;13.15;12.40;;;6.20;88.20;;;;;;5138040;27;20282;-60
2022/04/08 07:56:05;;;;;;;12.60;11.85;;;6.20;87.50;;;;;;5137701;27;20203;-59
2022/04/08 07:58:32;;;;;;;13.15;12.35;;;6.20;87.30;;;;;;5136717;27;20364;-61
2022/04/08 08:01:00;;;;;;;16.45;14.88;;;6.10;87.60;;;;;;5137787;27;20213;-60
2022/04/08 08:03:27;;;;;;;18.02;15.32;;;6.10;88.30;;;;;;5137602;27;20692;-60
2022/04/08 08:05:54;;;;;;;16.17;14.68;;;6.10;88.60;;;;;;5137633;27;20673;-59
2022/04/08 08:08:20;;;;;;;15.32;13.38;;;6.10;90.10;;;;;;5137552;27;20729;-60
2022/04/08 08:10:49;;;;;;;10.10;9.50;;;6.30;90.40;;;;;;5137267;27;20253;-60
2022/04/08 08:13:16;;;;;;;9.70;9.20;;;6.50;89.70;;;;;;5136151;27;20259;-61
2022/04/08 08:15:43;;;;;;;9.90;9.40;;;6.50;87.60;;;;;;5137503;27;20556;-61
2022/04/08 08:18:11;;;;;;;8.70;8.27;;;6.60;88.60;;;;;;5137390;27;20195;-59
2022/04/08 08:20:38;;;;;;;10.98;10.30;;;6.50;86.10;;;;;;5137209;27;20285;-60
2022/04/08 08:23:06;;;;;;;10.30;9.80;;;6.30;87.00;;;;;;5137271;27;20241;-59
2022/04/08 08:25:33;;;;;;;10.60;10.02;;;6.30;88.60;;;;;;5137078;27;20251;-60
2022/04/08 08:28:02;;;;;;;10.35;9.85;;;6.20;86.90;;;;;;5135813;27;20648;-59
2022/04/08 08:30:30;;;;;;;9.52;9.02;;;6.30;87.30;;;;;;5137001;27;20237;-60
2022/04/08 08:32:58;;;;;;;9.68;9.15;;;6.40;87.80;;;;;;5137081;27;20244;-60
2022/04/08 08:35:28;;;;;;;9.65;8.95;;;6.40;87.30;;;;;;5137005;27;20202;-60
2022/04/08 08:37:55;;;;;;;8.25;7.85;;;6.40;88.50;;;;;;5137110;27;20289;-60
2022/04/08 08:40:23;;;;;;;8.05;7.65;;;6.50;89.80;;;;;;5136896;27;20302;-60
2022/04/08 08:42:50;;;;;;;8.55;8.05;;;6.50;88.70;;;;;;5135716;27;20206;-60
2022/04/08 08:45:18;;;;;;;8.60;8.20;;;6.40;87.90;;;;;;5137014;27;20217;-58
2022/04/08 08:47:48;;;;;;;9.35;8.60;;;6.40;89.50;;;;;;5136924;27;20557;-59
2022/04/08 08:50:16;;;;;;;9.90;9.27;;;6.40;87.60;;;;;;5136689;27;20699;-59
2022/04/08 08:52:49;;;;;;;9.02;8.63;;;6.40;88.50;;;;;;5135878;27;20297;-59
2022/04/08 08:55:15;;;;;;;8.38;8.00;;;6.40;88.10;;;;;;5136643;27;20676;-58
2022/04/08 08:57:43;;;;;;;7.95;7.63;;;6.40;88.10;;;;;;5135444;27;20209;-59
2022/04/08 09:00:13;;;;;;;8.25;7.85;;;6.30;88.80;;;;;;5136672;27;20255;-62
2022/04/08 09:02:40;;;;;;;8.15;7.78;;;6.30;89.40;;;;;;5136556;27;20203;-59
2022/04/08 09:05:15;;;;;;;8.10;7.70;;;6.20;89.00;;;;;;5136600;27;20216;-59
2022/04/08 09:07:42;;;;;;;8.25;7.80;;;6.20;89.70;;;;;;5136503;27;20203;-59
2022/04/08 09:10:10;;;;;;;7.53;7.13;;;6.30;89.40;;;;;;5136169;27;20226;-59
2022/04/08 09:12:37;;;;;;;6.78;6.32;;;6.50;90.20;;;;;;5135259;27;20213;-59
2022/04/08 09:15:05;;;;;;;8.13;7.20;;;6.60;90.00;;;;;;5136204;27;20234;-59
2022/04/08 09:17:32;;;;;;;8.05;7.45;;;6.60;89.50;;;;;;5136376;27;20210;-59
2022/04/08 09:20:00;;;;;;;8.23;7.60;;;6.60;89.40;;;;;;5136119;27;20331;-58
2022/04/08 09:22:29;;;;;;;7.40;7.00;;;6.80;90.20;;;;;;5136238;27;20293;-58
2022/04/08 09:25:05;;;;;;;7.43;6.93;;;6.90;90.10;;;;;;5135672;27;20704;-59
2022/04/08 09:27:34;;;;;;;7.90;7.47;;;7.00;89.70;;;;;;5134518;27;20222;-59
2022/04/08 09:30:01;;;;;;;7.13;6.82;;;6.80;88.20;;;;;;5135738;27;20222;-59
2022/04/08 09:32:28;;;;;;;10.30;9.90;;;6.60;88.10;;;;;;5136075;27;20198;-60
2022/04/08 09:34:55;;;;;;;9.77;9.38;;;6.40;86.50;;;;;;5135936;27;20202;-59
2022/04/08 09:37:22;;;;;;;9.35;8.95;;;6.30;88.20;;;;;;5135936;27;20198;-59
2022/04/08 09:39:57;;;;;;;7.50;7.20;;;6.40;89.20;;;;;;5135865;27;20217;-60
2022/04/08 09:42:24;;;;;;;8.68;8.27;;;6.50;90.00;;;;;;5134493;27;20194;-59
2022/04/08 09:44:52;;;;;;;8.65;8.30;;;6.70;89.20;;;;;;5135839;27;20207;-59
2022/04/08 09:47:19;;;;;;;8.52;8.23;;;6.80;88.50;;;;;;5135847;27;20285;-60
2022/04/08 09:49:46;;;;;;;9.65;9.02;;;6.90;87.60;;;;;;5135482;27;20285;-60
2022/04/08 09:52:17;;;;;;;9.00;8.60;;;7.00;87.70;;;;;;5135604;27;20194;-60
2022/04/08 09:54:44;;;;;;;8.50;8.00;;;7.20;87.80;;;;;;5127035;27;20289;-57
2022/04/08 09:57:17;;;;;;;8.07;7.78;;;7.30;87.10;;;;;;5117191;27;20673;-59
2022/04/08 09:59:46;;;;;;;9.18;8.77;;;7.10;86.10;;;;;;5114104;28;20602;-58
2022/04/08 10:02:16;;;;;;;10.20;9.70;;;6.90;85.50;;;;;;5126691;27;20203;-59
2022/04/08 10:04:44;;;;;;;9.35;8.95;;;6.90;86.60;;;;;;5134808;27;20207;-59
2022/04/08 10:07:12;;;;;;;9.55;9.05;;;7.10;86.70;;;;;;5134444;27;20202;-58
2022/04/08 10:09:47;;;;;;;9.00;8.60;;;7.20;86.00;;;;;;5134530;27;20199;-59
2022/04/08 10:12:21;;;;;;;8.65;8.35;;;7.30;86.40;;;;;;5132825;27;20234;-59
2022/04/08 10:14:57;;;;;;;8.20;7.70;;;7.50;85.90;;;;;;5134910;27;20310;-59
2022/04/08 10:17:25;;;;;;;8.68;8.18;;;7.70;85.20;;;;;;5135110;27;20209;-58
2022/04/08 10:19:52;;;;;;;7.80;7.50;;;7.80;84.90;;;;;;5135038;27;20206;-58
2022/04/08 10:22:20;;;;;;;7.70;7.40;;;7.90;84.40;;;;;;5134983;27;20234;-58
2022/04/08 10:24:54;;;;;;;7.70;7.40;;;7.90;84.40;;;;;;5134952;27;20209;-59
2022/04/08 10:27:32;;;;;;;7.80;7.50;;;8.00;84.60;;;;;;5133608;27;20194;-58
2022/04/08 10:29:59;;;;;;;7.43;7.03;;;8.10;84.50;;;;;;5134569;27;20203;-59
2022/04/08 10:32:38;;;;;;;7.50;7.10;;;8.20;84.40;;;;;;5134839;27;20600;-58
2022/04/08 10:35:17;;;;;;;7.38;7.05;;;8.30;84.00;;;;;;5134850;27;20194;-58
2022/04/08 10:37:54;;;;;;;7.40;7.10;;;8.30;83.90;;;;;;5134660;27;20250;-59
2022/04/08 10:40:21;;;;;;;7.63;7.32;;;8.30;84.10;;;;;;5134578;27;20202;-59
2022/04/08 10:42:57;;;;;;;7.88;7.50;;;8.40;84.10;;;;;;5133201;27;20202;-57
2022/04/08 10:45:24;;;;;;;8.07;7.60;;;8.30;85.10;;;;;;5134607;27;20198;-58
2022/04/08 10:47:52;;;;;;;7.72;7.43;;;8.30;84.90;;;;;;5134545;27;20293;-56
2022/04/08 10:50:27;;;;;;;8.05;7.55;;;8.30;84.80;;;;;;5134337;27;20234;-56
2022/04/08 10:53:07;;;;;;;8.18;7.75;;;8.30;84.90;;;;;;5134331;27;20201;-58
2022/04/08 10:55:49;;;;;;;7.20;6.90;;;8.40;84.60;;;;;;5134370;27;20564;-58
2022/04/08 10:58:29;;;;;;;8.38;7.97;;;8.40;84.20;;;;;;5133163;27;20210;-58
2022/04/08 11:00:56;;;;;;;8.73;8.40;;;8.30;84.40;;;;;;5134259;27;20679;-58
2022/04/08 11:03:27;;;;;;;7.18;6.88;;;8.40;84.20;;;;;;5134098;27;20209;-58
2022/04/08 11:05:55;;;;;;;8.60;8.20;;;8.30;84.80;;;;;;5134335;27;20206;-57
2022/04/08 11:08:24;;;;;;;8.30;8.00;;;8.30;85.10;;;;;;5134228;27;20275;-56
2022/04/08 11:10:57;;;;;;;9.40;8.88;;;8.20;85.80;;;;;;5133873;27;20704;-55
2022/04/08 11:13:24;;;;;;;8.32;7.93;;;8.20;85.60;;;;;;5132766;27;20218;-56
2022/04/08 11:15:50;;;;;;;8.10;7.70;;;8.20;84.90;;;;;;5133531;27;20653;-56
2022/04/08 11:18:18;;;;;;;8.60;8.20;;;8.00;85.90;;;;;;5134039;27;20205;-56
2022/04/08 11:20:49;;;;;;;7.65;7.25;;;8.00;86.30;;;;;;5133875;27;20206;-55
2022/04/08 11:23:25;;;;;;;8.30;7.90;;;7.80;87.80;;;;;;5133860;27;20657;-58
2022/04/08 11:25:53;;;;;;;7.57;7.18;;;7.80;86.90;;;;;;5133929;27;20202;-55
2022/04/08 11:28:22;;;;;;;8.20;7.80;;;7.70;87.40;;;;;;5132631;27;20206;-57
2022/04/08 11:30:56;;;;;;;7.43;6.80;;;7.70;88.20;;;;;;5133943;27;20239;-58
2022/04/08 11:33:23;;;;;;;7.40;7.10;;;7.60;88.30;;;;;;5133953;27;20201;-58
2022/04/08 11:35:58;;;;;;;7.90;7.50;;;7.60;88.90;;;;;;5133914;27;20248;-58
2022/04/08 11:38:25;;;;;;;6.90;6.50;;;7.60;88.40;;;;;;5133799;27;20209;-58
2022/04/08 11:40:52;;;;;;;5.85;5.55;;;7.70;87.70;;;;;;5133593;27;20199;-58
2022/04/08 11:43:21;;;;;;;8.60;8.10;;;7.50;88.40;;;;;;5132450;27;20206;-56
2022/04/08 11:45:49;;;;;;;7.50;7.20;;;7.60;88.90;;;;;;5133857;27;20648;-56
2022/04/08 11:48:18;;;;;;;8.18;7.57;;;7.70;88.90;;;;;;5133820;27;20301;-57
2022/04/08 11:50:46;;;;;;;7.80;7.40;;;7.80;87.90;;;;;;5133650;27;20226;-59
2022/04/08 11:53:19;;;;;;;7.32;7.03;;;7.90;87.40;;;;;;5133768;27;20238;-59
2022/04/08 11:55:56;;;;;;;8.13;7.63;;;7.80;87.00;;;;;;5133568;27;20207;-57
2022/04/08 11:58:24;;;;;;;6.32;6.10;;;7.90;86.90;;;;;;5132293;27;20679;-57
2022/04/08 12:00:52;;;;;;;8.25;7.88;;;8.00;86.80;;;;;;5133606;27;20233;-58
2022/04/08 12:03:21;;;;;;;7.85;7.45;;;8.10;86.70;;;;;;5133665;27;20199;-58
2022/04/08 12:05:49;;;;;;;8.70;8.25;;;8.10;86.30;;;;;;5133489;27;20195;-59
2022/04/08 12:08:18;;;;;;;9.63;8.90;;;8.10;86.10;;;;;;5133466;27;20213;-59
2022/04/08 12:10:45;;;;;;;8.68;8.18;;;8.20;85.90;;;;;;5133411;27;20218;-59
2022/04/08 12:13:16;;;;;;;8.70;8.20;;;8.20;86.30;;;;;;5132134;27;20241;-58
2022/04/08 12:15:44;;;;;;;8.57;8.07;;;8.20;85.80;;;;;;5133501;27;20547;-58
2022/04/08 12:18:12;;;;;;;8.10;7.60;;;8.20;86.10;;;;;;5133396;27;20226;-58
2022/04/08 12:20:40;;;;;;;7.43;7.00;;;8.20;86.10;;;;;;5133230;27;20207;-58
2022/04/08 12:23:11;;;;;;;8.02;7.53;;;8.00;86.20;;;;;;5133421;27;20297;-58
2022/04/08 12:25:39;;;;;;;8.50;8.10;;;8.00;86.60;;;;;;5133263;27;20562;-58
2022/04/08 12:28:12;;;;;;;8.85;8.27;;;8.10;86.60;;;;;;5135811;27;20230;-58
2022/04/08 12:30:39;;;;;;;8.88;8.30;;;8.10;86.30;;;;;;5137130;27;20235;-58
2022/04/08 12:33:06;;;;;;;9.20;8.55;;;8.10;86.30;;;;;;5137120;27;20203;-58
2022/04/08 12:35:34;;;;;;;8.82;8.32;;;8.00;86.80;;;;;;5137095;27;20203;-58
2022/04/08 12:38:04;;;;;;;8.90;8.30;;;7.70;88.30;;;;;;5137148;27;20707;-58
2022/04/08 12:40:31;;;;;;;6.97;6.47;;;7.60;88.60;;;;;;5136933;27;20203;-59
2022/04/08 12:43:01;;;;;;;9.27;8.45;;;7.60;88.80;;;;;;5135728;27;20206;-58
2022/04/08 12:45:28;;;;;;;9.43;8.68;;;7.60;88.40;;;;;;5136860;27;20202;-58
2022/04/08 12:47:55;;;;;;;8.60;8.00;;;7.50;88.40;;;;;;5136791;27;20210;-58
2022/04/08 12:50:23;;;;;;;7.70;7.10;;;7.60;88.90;;;;;;5136848;27;20569;-57
2022/04/08 12:52:50;;;;;;;8.35;7.68;;;7.50;89.80;;;;;;5136927;27;20230;-59
2022/04/08 12:55:18;;;;;;;7.75;7.25;;;7.50;89.10;;;;;;5136685;27;20234;-58
2022/04/08 12:57:47;;;;;;;7.80;7.25;;;7.60;88.90;;;;;;5119014;27;20730;-57
2022/04/08 13:00:16;;;;;;;6.15;5.75;;;7.40;88.60;;;;;;5116012;27;20597;-58